Time;durP1;ratioP1;P1;durP2;ratioP2;P2;SDS_P1;SDS_P2;PMS_P1;PMS_P2;Temp;Humidity;BMP_temperature;BMP_pressure;BME280_temperature;BME280_humidity;BME280_pressure;Samples;Min_cycle;Max_cycle;Signal;HPM_P1;HPM_P2
2022/04/07 00:02:09;;;;;;;31.95;28.00;;;8.70;78.30;;;;;;6121052;23;20435;-79
2022/04/07 00:04:36;;;;;;;30.92;27.60;;;8.70;77.70;;;;;;6123151;23;20383;-77
2022/04/07 00:07:03;;;;;;;36.47;31.52;;;8.60;77.40;;;;;;6122375;23;20371;-78
2022/04/07 00:09:30;;;;;;;38.15;31.98;;;8.60;78.60;;;;;;6124591;23;20394;-78
2022/04/07 00:11:57;;;;;;;38.40;31.80;;;8.50;78.80;;;;;;6124037;23;20488;-77
2022/04/07 00:14:24;;;;;;;36.80;29.83;;;8.40;78.90;;;;;;6123164;23;20380;-77
2022/04/07 00:16:50;;;;;;;40.58;32.40;;;8.40;78.50;;;;;;6122170;23;20853;-77
2022/04/07 00:19:17;;;;;;;34.03;29.98;;;8.40;79.30;;;;;;6124989;23;20378;-78
2022/04/07 00:21:46;;;;;;;33.95;29.52;;;8.10;80.00;;;;;;6126238;23;20371;-77
2022/04/07 00:24:14;;;;;;;34.00;29.13;;;8.00;80.80;;;;;;6122097;23;20413;-76
2022/04/07 00:26:41;;;;;;;36.38;29.90;;;7.90;80.70;;;;;;6122841;23;20380;-78
2022/04/07 00:29:08;;;;;;;32.33;28.17;;;7.90;80.30;;;;;;6122206;23;20380;-76
2022/04/07 00:31:41;;;;;;;35.93;31.33;;;7.90;79.80;;;;;;6121976;23;20388;-77
2022/04/07 00:34:10;;;;;;;38.40;31.10;;;8.00;80.50;;;;;;6122397;23;20443;-79
2022/04/07 00:36:37;;;;;;;35.03;29.90;;;8.00;80.10;;;;;;6121251;23;20433;-79
2022/04/07 00:39:04;;;;;;;36.63;31.27;;;8.00;79.30;;;;;;6124714;23;20379;-79
2022/04/07 00:41:31;;;;;;;35.43;30.40;;;8.00;80.80;;;;;;6122997;23;20380;-80
2022/04/07 00:43:58;;;;;;;37.60;32.65;;;8.00;79.90;;;;;;6122054;23;20376;-76
2022/04/07 00:46:25;;;;;;;39.63;34.15;;;7.90;81.00;;;;;;6122688;23;20391;-77
2022/04/07 00:48:52;;;;;;;41.20;34.78;;;7.80;82.70;;;;;;6122192;23;20407;-76
2022/04/07 00:51:20;;;;;;;37.88;33.10;;;7.60;83.60;;;;;;6123911;23;20439;-76
2022/04/07 00:53:47;;;;;;;37.23;32.00;;;7.70;82.90;;;;;;6122372;23;20936;-79
2022/04/07 00:56:14;;;;;;;36.35;30.83;;;7.70;82.40;;;;;;6126136;23;20837;-79
2022/04/07 00:58:41;;;;;;;39.28;33.97;;;7.70;82.10;;;;;;6120172;23;20938;-79
2022/04/07 01:01:08;;;;;;;36.83;32.80;;;7.70;81.60;;;;;;6125426;23;20848;-80
2022/04/07 01:03:36;;;;;;;37.67;33.20;;;7.70;81.20;;;;;;6120632;23;20459;-79
2022/04/07 01:06:03;;;;;;;39.33;32.80;;;7.70;81.80;;;;;;6122265;23;20379;-76
2022/04/07 01:08:30;;;;;;;36.40;32.40;;;7.70;81.90;;;;;;6125167;23;20446;-79
2022/04/07 01:10:57;;;;;;;36.63;31.15;;;7.70;81.20;;;;;;6119616;23;20434;-80
2022/04/07 01:13:43;;;;;;;37.57;31.07;;;7.70;81.00;;;;;;6122533;23;20392;-78
2022/04/07 01:16:11;;;;;;;37.58;31.48;;;7.70;80.50;;;;;;6146697;23;20380;-77
2022/04/07 01:18:38;;;;;;;39.50;32.92;;;7.80;80.20;;;;;;6121755;23;20427;-77
2022/04/07 01:21:06;;;;;;;38.43;31.20;;;7.70;80.50;;;;;;6123454;23;20886;-79
2022/04/07 01:23:35;;;;;;;39.80;32.88;;;7.70;80.10;;;;;;6122224;23;20439;-80
2022/04/07 01:26:02;;;;;;;37.70;32.05;;;7.60;81.90;;;;;;6122075;23;20756;-80
2022/04/07 01:28:29;;;;;;;38.85;34.15;;;7.40;82.40;;;;;;6122077;23;20379;-79
2022/04/07 01:30:56;;;;;;;43.93;36.00;;;7.30;83.70;;;;;;6122720;23;20443;-79
2022/04/07 01:33:23;;;;;;;47.15;38.47;;;7.30;83.60;;;;;;6123341;23;20852;-78
2022/04/07 01:35:52;;;;;;;44.67;37.17;;;7.20;86.00;;;;;;6125918;23;20423;-78
2022/04/07 01:38:20;;;;;;;43.23;36.97;;;7.20;85.20;;;;;;6122956;23;20376;-78
2022/04/07 01:40:49;;;;;;;43.47;36.15;;;7.20;85.20;;;;;;6122711;23;20376;-80
2022/04/07 01:43:17;;;;;;;43.95;35.47;;;7.30;84.70;;;;;;6120029;23;20376;-80
2022/04/07 01:45:45;;;;;;;39.80;35.35;;;7.30;84.30;;;;;;6122151;23;20380;-78
2022/04/07 01:48:12;;;;;;;43.65;35.67;;;7.30;83.80;;;;;;6122766;23;20380;-79
2022/04/07 01:50:40;;;;;;;38.40;34.08;;;7.20;83.90;;;;;;6120957;23;20383;-77
2022/04/07 01:53:08;;;;;;;40.77;34.43;;;7.20;84.10;;;;;;6123435;23;20386;-80
2022/04/07 01:55:36;;;;;;;45.65;37.45;;;7.20;83.00;;;;;;6122973;23;20709;-80
2022/04/07 01:58:03;;;;;;;42.53;36.47;;;7.10;84.70;;;;;;6122150;23;20848;-76
2022/04/07 02:00:30;;;;;;;44.33;36.15;;;7.10;85.00;;;;;;6124273;23;20387;-79
2022/04/07 02:02:57;;;;;;;43.42;35.17;;;7.10;84.90;;;;;;6120814;23;20438;-79
2022/04/07 02:05:24;;;;;;;39.53;33.90;;;7.10;83.70;;;;;;6122445;23;20435;-80
2022/04/07 02:07:51;;;;;;;46.97;37.97;;;7.10;83.30;;;;;;6122105;23;20417;-79
2022/04/07 02:10:18;;;;;;;43.95;37.92;;;7.00;85.30;;;;;;6122681;23;20446;-78
2022/04/07 02:12:45;;;;;;;44.90;37.80;;;7.00;85.00;;;;;;6124831;23;20390;-76
2022/04/07 02:15:12;;;;;;;41.55;35.33;;;7.00;84.70;;;;;;6122034;23;20398;-77
2022/04/07 02:17:39;;;;;;;44.58;35.13;;;6.90;84.30;;;;;;6123796;23;20427;-76
2022/04/07 02:20:08;;;;;;;40.55;34.05;;;6.70;85.60;;;;;;6119705;23;20383;-78
2022/04/07 02:22:36;;;;;;;40.97;35.20;;;6.60;86.00;;;;;;6122580;23;20380;-79
2022/04/07 02:25:04;;;;;;;42.03;35.55;;;6.50;86.50;;;;;;6119488;23;20454;-79
2022/04/07 02:27:39;;;;;;;41.60;35.05;;;6.60;86.50;;;;;;6122624;23;20409;-79
2022/04/07 02:30:08;;;;;;;44.10;37.55;;;6.50;87.60;;;;;;6120876;23;20760;-80
2022/04/07 02:32:36;;;;;;;47.13;38.05;;;6.50;87.50;;;;;;6124266;23;20380;-78
2022/04/07 02:35:03;;;;;;;46.03;39.05;;;6.50;88.40;;;;;;6122347;23;20860;-79
2022/04/07 02:37:30;;;;;;;50.42;40.78;;;6.50;87.70;;;;;;6125147;23;20922;-79
2022/04/07 02:39:56;;;;;;;47.95;38.83;;;6.50;88.90;;;;;;6122594;23;20376;-78
2022/04/07 02:42:23;;;;;;;46.60;39.25;;;6.60;88.20;;;;;;6123588;23;20367;-78
2022/04/07 02:44:50;;;;;;;45.97;37.30;;;6.60;87.30;;;;;;6124091;23;20383;-79
2022/04/07 02:47:17;;;;;;;44.23;36.27;;;6.70;86.60;;;;;;6121534;23;20852;-79
2022/04/07 02:49:45;;;;;;;44.75;37.67;;;6.70;85.80;;;;;;6124931;23;20372;-78
2022/04/07 02:52:12;;;;;;;43.50;36.92;;;6.70;85.50;;;;;;6121637;23;20470;-79
2022/04/07 02:54:39;;;;;;;39.45;34.20;;;6.80;85.30;;;;;;6125092;23;20745;-79
2022/04/07 02:57:06;;;;;;;50.42;40.15;;;6.80;85.10;;;;;;6121712;23;20390;-79
2022/04/07 02:59:33;;;;;;;47.15;36.78;;;6.70;86.80;;;;;;6123477;23;20383;-77
2022/04/07 03:02:00;;;;;;;44.63;37.03;;;6.70;85.90;;;;;;6122268;23;20935;-77
2022/04/07 03:04:27;;;;;;;43.30;36.50;;;6.70;85.20;;;;;;6124694;23;20450;-79
2022/04/07 03:06:54;;;;;;;45.28;36.50;;;6.70;84.60;;;;;;6122819;23;20375;-77
2022/04/07 03:09:22;;;;;;;46.05;37.75;;;6.80;84.70;;;;;;6122329;23;20368;-79
2022/04/07 03:11:49;;;;;;;43.42;34.15;;;6.70;84.50;;;;;;6122501;23;20388;-80
2022/04/07 03:14:16;;;;;;;40.75;33.85;;;6.70;84.10;;;;;;6122017;23;20923;-80
2022/04/07 03:16:48;;;;;;;41.10;34.13;;;6.50;84.10;;;;;;6122706;23;20740;-79
2022/04/07 03:19:16;;;;;;;39.28;32.92;;;6.40;84.40;;;;;;6121999;23;20439;-77
2022/04/07 03:21:44;;;;;;;46.42;37.85;;;6.30;84.90;;;;;;6124228;23;20868;-79
2022/04/07 03:24:12;;;;;;;48.60;39.70;;;6.20;85.50;;;;;;6121770;23;20777;-79
2022/04/07 03:26:59;;;;;;;46.60;38.83;;;6.20;86.70;;;;;;6122591;23;20472;-79
2022/04/07 03:29:28;;;;;;;52.83;43.00;;;6.10;87.40;;;;;;6122247;23;20835;-78
2022/04/07 03:31:55;;;;;;;51.60;40.97;;;6.10;89.30;;;;;;6124528;23;20416;-78
2022/04/07 03:34:22;;;;;;;61.78;47.63;;;6.10;89.00;;;;;;6122451;23;20439;-80
2022/04/07 03:36:48;;;;;;;52.60;42.90;;;6.10;90.30;;;;;;6122940;23;20442;-77
2022/04/07 03:39:15;;;;;;;52.08;42.17;;;6.20;88.90;;;;;;6121554;23;20388;-79
2022/04/07 03:41:42;;;;;;;51.53;41.55;;;6.20;88.00;;;;;;6121087;23;20920;-79
2022/04/07 03:44:10;;;;;;;49.20;40.95;;;6.30;87.40;;;;;;6123695;23;20459;-79
2022/04/07 03:46:38;;;;;;;54.05;43.08;;;6.20;87.40;;;;;;6122655;23;20744;-79
2022/04/07 03:49:05;;;;;;;55.60;44.70;;;6.30;87.60;;;;;;6122017;23;20388;-79
2022/04/07 03:51:32;;;;;;;69.10;51.33;;;6.30;89.30;;;;;;6123028;23;20926;-78
2022/04/07 03:53:59;;;;;;;66.40;51.22;;;6.30;88.90;;;;;;6122967;23;20383;-76
2022/04/07 03:56:26;;;;;;;63.45;49.13;;;6.30;88.60;;;;;;6121965;23;20732;-79
2022/04/07 03:58:52;;;;;;;55.72;43.75;;;6.40;87.60;;;;;;6122091;23;20760;-79
2022/04/07 04:01:19;;;;;;;51.88;40.75;;;6.50;88.10;;;;;;6121250;23;20376;-76
2022/04/07 04:03:46;;;;;;;49.10;39.97;;;6.50;87.10;;;;;;6122093;23;20403;-76
2022/04/07 04:06:13;;;;;;;47.80;39.50;;;6.50;86.20;;;;;;6123353;23;20380;-79
2022/04/07 04:08:40;;;;;;;46.92;38.58;;;6.50;85.30;;;;;;6124008;23;20388;-79
2022/04/07 04:11:07;;;;;;;45.40;38.67;;;6.40;83.90;;;;;;6120418;23;20443;-79
2022/04/07 04:13:34;;;;;;;48.80;39.87;;;6.30;84.00;;;;;;6122091;23;20380;-78
2022/04/07 04:16:01;;;;;;;50.00;41.22;;;6.20;84.90;;;;;;6123918;23;20442;-79
2022/04/07 04:18:28;;;;;;;48.25;39.45;;;6.10;86.00;;;;;;6122453;23;20364;-76
2022/04/07 04:20:55;;;;;;;53.10;42.45;;;6.10;85.80;;;;;;6121744;23;20391;-79
2022/04/07 04:23:22;;;;;;;51.58;41.05;;;6.00;87.40;;;;;;6121904;23;20427;-79
2022/04/07 04:25:49;;;;;;;52.37;42.00;;;6.00;86.70;;;;;;6121191;23;20399;-79
2022/04/07 04:28:16;;;;;;;55.50;43.05;;;5.90;87.40;;;;;;6121579;23;20395;-79
2022/04/07 04:30:43;;;;;;;49.20;40.22;;;5.80;88.50;;;;;;6121495;23;20852;-76
2022/04/07 04:33:10;;;;;;;51.65;41.13;;;5.90;86.70;;;;;;6121404;23;20405;-79
2022/04/07 04:35:37;;;;;;;49.60;40.17;;;5.90;87.00;;;;;;6122797;23;20499;-79
2022/04/07 04:38:04;;;;;;;49.30;40.53;;;5.90;87.10;;;;;;6120848;23;20367;-79
2022/04/07 04:40:31;;;;;;;48.65;40.00;;;5.90;86.70;;;;;;6121044;23;20372;-79
2022/04/07 04:42:59;;;;;;;54.00;42.67;;;5.90;86.60;;;;;;6121390;23;20376;-77
2022/04/07 04:45:26;;;;;;;52.70;42.40;;;5.70;88.20;;;;;;6120871;23;20385;-79
2022/04/07 04:47:53;;;;;;;55.95;44.83;;;5.70;89.00;;;;;;6122104;23;20383;-79
2022/04/07 04:50:20;;;;;;;58.17;46.35;;;5.70;88.00;;;;;;6120097;23;20430;-77
2022/04/07 04:52:48;;;;;;;55.23;42.97;;;5.70;89.60;;;;;;6121780;23;20443;-78
2022/04/07 04:55:15;;;;;;;55.22;42.53;;;5.70;89.10;;;;;;6120806;23;20443;-79
2022/04/07 04:57:42;;;;;;;49.55;40.53;;;5.80;88.20;;;;;;6120861;23;20395;-78
2022/04/07 05:00:09;;;;;;;55.45;43.90;;;5.80;87.20;;;;;;6123506;23;20430;-77
2022/04/07 05:02:37;;;;;;;52.67;41.70;;;5.80;89.70;;;;;;6122877;23;20765;-78
2022/04/07 05:05:06;;;;;;;52.22;40.42;;;5.80;88.50;;;;;;6123406;23;20768;-77
2022/04/07 05:07:33;;;;;;;52.08;40.50;;;5.90;88.60;;;;;;6122451;23;20512;-78
2022/04/07 05:10:01;;;;;;;53.03;41.05;;;5.90;87.50;;;;;;6120233;23;20383;-78
2022/04/07 05:12:28;;;;;;;47.55;38.92;;;5.90;87.30;;;;;;6124587;23;20848;-78
2022/04/07 05:14:55;;;;;;;47.38;39.85;;;5.80;86.70;;;;;;6120970;23;20951;-78
2022/04/07 05:17:22;;;;;;;50.63;40.53;;;5.80;86.30;;;;;;6125852;23;20388;-78
2022/04/07 05:19:49;;;;;;;50.00;40.70;;;5.80;86.30;;;;;;6122901;23;20391;-77
2022/04/07 05:22:18;;;;;;;51.83;40.65;;;5.50;86.50;;;;;;6124657;23;20388;-78
2022/04/07 05:24:45;;;;;;;55.70;43.50;;;5.30;87.40;;;;;;6122168;23;20382;-78
2022/04/07 05:27:12;;;;;;;54.20;41.60;;;5.20;89.70;;;;;;6121955;23;20447;-78
2022/04/07 05:29:38;;;;;;;55.17;43.47;;;5.30;89.10;;;;;;6127227;23;20431;-78
2022/04/07 05:32:06;;;;;;;53.93;43.57;;;5.30;89.10;;;;;;6121884;23;20480;-78
2022/04/07 05:34:33;;;;;;;53.55;42.67;;;5.30;89.60;;;;;;6121150;23;20423;-78
2022/04/07 05:37:00;;;;;;;60.03;44.67;;;5.40;89.40;;;;;;6123269;23;20390;-77
2022/04/07 05:39:27;;;;;;;55.50;43.65;;;5.40;90.30;;;;;;6122668;23;20479;-78
2022/04/07 05:41:54;;;;;;;55.03;43.53;;;5.50;89.90;;;;;;6120543;23;20391;-78
2022/04/07 05:44:21;;;;;;;54.67;43.35;;;5.50;88.90;;;;;;6120744;23;20380;-77
2022/04/07 05:46:48;;;;;;;50.42;40.75;;;5.40;88.80;;;;;;6122124;23;20380;-79
2022/04/07 05:49:15;;;;;;;52.70;41.63;;;5.50;88.90;;;;;;6122614;23;20386;-78
2022/04/07 05:51:42;;;;;;;54.85;43.17;;;5.30;88.90;;;;;;6119792;23;20462;-79
2022/04/07 05:54:09;;;;;;;53.75;42.70;;;5.30;89.50;;;;;;6122415;23;20434;-77
2022/04/07 05:56:36;;;;;;;58.60;44.42;;;5.30;89.20;;;;;;6122181;23;20375;-78
2022/04/07 05:59:03;;;;;;;57.20;45.55;;;5.40;90.10;;;;;;6121791;23;20717;-79
2022/04/07 06:01:30;;;;;;;63.03;48.65;;;5.40;90.30;;;;;;6121055;23;20686;-77
2022/04/07 06:03:57;;;;;;;75.07;55.30;;;5.50;90.00;;;;;;6122414;23;20757;-78
2022/04/07 06:06:25;;;;;;;63.83;49.05;;;5.60;90.70;;;;;;6123900;23;20458;-78
2022/04/07 06:08:52;;;;;;;67.53;48.83;;;5.70;90.20;;;;;;6122867;23;20393;-79
2022/04/07 06:11:18;;;;;;;65.63;48.85;;;5.90;89.70;;;;;;6122098;23;20403;-78
2022/04/07 06:13:45;;;;;;;64.85;49.53;;;6.00;89.40;;;;;;6124113;23;20934;-77
2022/04/07 06:16:12;;;;;;;65.82;50.05;;;6.00;90.00;;;;;;6123816;23;20375;-78
2022/04/07 06:18:40;;;;;;;74.20;55.35;;;6.20;90.00;;;;;;6147417;23;20971;-78
2022/04/07 06:21:07;;;;;;;68.80;51.67;;;6.20;90.30;;;;;;6122435;23;20451;-78
2022/04/07 06:23:34;;;;;;;64.53;49.20;;;6.40;89.60;;;;;;6122375;23;20824;-78
2022/04/07 06:26:01;;;;;;;66.80;51.83;;;6.40;89.20;;;;;;6124665;23;20376;-79
2022/04/07 06:28:28;;;;;;;66.05;52.28;;;6.60;90.10;;;;;;6121982;23;20879;-79
2022/04/07 06:30:55;;;;;;;63.97;51.17;;;6.70;90.30;;;;;;6124793;23;20757;-79
2022/04/07 06:33:22;;;;;;;58.42;46.78;;;6.80;89.90;;;;;;6122983;23;20927;-78
2022/04/07 06:35:49;;;;;;;60.05;47.38;;;6.90;89.90;;;;;;6123511;23;20375;-78
2022/04/07 06:38:17;;;;;;;61.27;48.53;;;7.00;89.60;;;;;;6122569;23;20380;-78
2022/04/07 06:40:44;;;;;;;58.53;47.47;;;7.10;88.80;;;;;;6122534;23;20930;-78
2022/04/07 06:43:11;;;;;;;66.20;52.95;;;7.20;89.10;;;;;;6122815;23;20378;-77
2022/04/07 06:45:38;;;;;;;69.87;53.53;;;7.30;90.30;;;;;;6122370;23;20887;-78
2022/04/07 06:48:06;;;;;;;64.03;51.88;;;7.40;90.30;;;;;;6122335;23;20387;-79
2022/04/07 06:50:32;;;;;;;63.60;50.10;;;7.40;89.80;;;;;;6120739;23;20864;-79
2022/04/07 06:53:00;;;;;;;59.87;47.93;;;7.60;89.50;;;;;;6122247;23;20383;-78
2022/04/07 06:55:28;;;;;;;58.47;48.03;;;7.60;89.00;;;;;;6122799;23;20386;-79
2022/04/07 06:58:00;;;;;;;56.65;45.60;;;7.60;89.70;;;;;;6123431;23;20380;-78
2022/04/07 07:00:32;;;;;;;59.45;48.38;;;7.70;89.30;;;;;;6122429;23;20388;-78
2022/04/07 07:03:01;;;;;;;61.30;48.78;;;7.80;89.80;;;;;;6123927;23;20372;-77
2022/04/07 07:05:30;;;;;;;55.30;45.00;;;8.00;89.20;;;;;;6123824;23;20379;-78
2022/04/07 07:07:57;;;;;;;55.20;44.38;;;8.10;86.10;;;;;;6123233;23;20430;-79
2022/04/07 07:10:26;;;;;;;54.88;44.92;;;8.30;86.10;;;;;;6123350;23;20384;-77
2022/04/07 07:12:53;;;;;;;55.55;43.20;;;8.40;86.00;;;;;;6125127;23;20384;-77
2022/04/07 07:15:23;;;;;;;53.30;42.17;;;8.70;82.40;;;;;;6123032;23;20379;-78
2022/04/07 07:17:51;;;;;;;49.25;41.30;;;8.90;80.20;;;;;;6121565;23;20955;-79
2022/04/07 07:20:19;;;;;;;50.83;40.67;;;9.10;80.00;;;;;;6122898;23;20724;-79
2022/04/07 07:22:46;;;;;;;51.85;41.72;;;9.20;78.10;;;;;;6124333;23;20379;-79
2022/04/07 07:25:14;;;;;;;50.63;40.88;;;9.40;78.40;;;;;;6122190;23;20860;-79
2022/04/07 07:27:46;;;;;;;51.72;39.50;;;9.60;78.40;;;;;;6121552;23;20380;-78
2022/04/07 07:30:17;;;;;;;47.17;39.05;;;9.60;76.60;;;;;;6122343;23;20384;-78
2022/04/07 07:32:46;;;;;;;50.78;42.70;;;9.80;75.70;;;;;;6121618;23;20432;-79
2022/04/07 07:35:17;;;;;;;50.80;41.00;;;10.00;77.00;;;;;;6122196;23;20383;-78
2022/04/07 07:37:51;;;;;;;49.40;40.85;;;10.30;74.80;;;;;;6120604;23;20711;-79
2022/04/07 07:40:21;;;;;;;47.50;39.58;;;10.40;74.60;;;;;;6123420;23;20380;-79
2022/04/07 07:42:48;;;;;;;49.92;42.42;;;10.60;74.80;;;;;;6121446;23;20384;-79
2022/04/07 07:45:18;;;;;;;49.87;41.80;;;10.80;74.40;;;;;;6122648;23;20466;-79
2022/04/07 07:48:05;;;;;;;46.58;40.97;;;10.90;73.40;;;;;;6124122;23;20402;-77
2022/04/07 07:50:31;;;;;;;49.35;41.22;;;11.10;73.10;;;;;;6121525;23;20442;-77
2022/04/07 07:52:58;;;;;;;48.55;40.38;;;11.20;72.20;;;;;;6121056;23;20383;-79
2022/04/07 07:55:25;;;;;;;47.60;41.25;;;11.40;71.50;;;;;;6121486;23;20376;-78
2022/04/07 07:57:52;;;;;;;45.50;39.07;;;11.50;69.50;;;;;;6121457;23;20408;-78
2022/04/07 08:00:19;;;;;;;46.63;39.63;;;11.70;70.10;;;;;;6122233;23;20395;-80
2022/04/07 08:02:46;;;;;;;45.83;39.10;;;11.90;69.60;;;;;;6120424;23;20450;-79
2022/04/07 08:05:13;;;;;;;47.80;39.78;;;12.10;67.30;;;;;;6121900;23;20376;-79
2022/04/07 08:07:42;;;;;;;44.70;37.78;;;12.40;66.30;;;;;;6121569;23;20749;-80
2022/04/07 08:10:10;;;;;;;48.50;39.90;;;12.40;65.30;;;;;;6146236;23;20380;-79
2022/04/07 08:12:38;;;;;;;44.60;36.58;;;12.70;65.10;;;;;;6121334;23;20387;-79
2022/04/07 08:15:06;;;;;;;45.40;38.55;;;12.90;64.90;;;;;;6121178;23;20379;-80
2022/04/07 08:17:34;;;;;;;44.25;37.30;;;13.00;64.40;;;;;;6121864;23;20435;-78
2022/04/07 08:20:04;;;;;;;43.72;37.38;;;13.10;63.60;;;;;;6121034;23;20860;-78
2022/04/07 08:22:31;;;;;;;46.90;37.92;;;13.20;61.20;;;;;;6122117;23;20431;-79
2022/04/07 08:24:58;;;;;;;45.30;38.35;;;13.30;61.10;;;;;;6121956;23;20379;-78
2022/04/07 08:27:26;;;;;;;51.17;38.70;;;13.50;62.90;;;;;;6122705;23;20389;-80
2022/04/07 08:29:53;;;;;;;44.97;36.97;;;13.70;61.30;;;;;;6120532;23;20384;-80
2022/04/07 08:32:20;;;;;;;48.90;39.30;;;13.70;61.40;;;;;;6122393;23;20702;-80
2022/04/07 08:34:47;;;;;;;43.25;37.03;;;13.60;62.20;;;;;;6120377;23;20388;-79
2022/04/07 08:37:14;;;;;;;41.97;37.05;;;13.70;63.60;;;;;;6122413;23;20438;-78
2022/04/07 08:39:41;;;;;;;43.58;36.03;;;14.00;61.20;;;;;;6119877;23;20476;-77
2022/04/07 08:42:08;;;;;;;43.80;36.13;;;14.20;58.40;;;;;;6120805;23;20833;-79
2022/04/07 08:44:35;;;;;;;40.42;35.33;;;14.30;60.20;;;;;;6122798;23;20394;-78
2022/04/07 08:47:02;;;;;;;43.90;37.13;;;14.50;59.10;;;;;;6121418;23;20864;-77
2022/04/07 08:49:31;;;;;;;41.10;35.55;;;14.50;58.90;;;;;;6121571;23;20387;-80
2022/04/07 08:51:58;;;;;;;40.88;35.30;;;14.70;57.40;;;;;;6122350;23;20570;-80
2022/04/07 08:54:26;;;;;;;41.45;36.25;;;14.60;57.40;;;;;;6123586;23;20701;-79
2022/04/07 08:56:53;;;;;;;42.75;35.30;;;14.70;57.10;;;;;;6122799;23;20380;-77
2022/04/07 08:59:21;;;;;;;39.30;35.00;;;14.90;56.50;;;;;;6121377;23;20375;-77
2022/04/07 09:01:48;;;;;;;40.35;35.42;;;14.80;57.00;;;;;;6120689;23;20380;-79
2022/04/07 09:04:15;;;;;;;41.17;35.25;;;14.90;57.40;;;;;;6120581;23;20368;-78
2022/04/07 09:06:42;;;;;;;42.22;36.03;;;15.10;57.40;;;;;;6121472;23;20406;-79
2022/04/07 09:09:16;;;;;;;40.93;35.90;;;15.20;56.00;;;;;;6121742;23;20908;-78
2022/04/07 09:11:44;;;;;;;39.60;34.13;;;15.30;55.40;;;;;;6121593;23;20386;-79
2022/04/07 09:14:12;;;;;;;41.67;36.03;;;15.40;56.50;;;;;;6120900;23;20450;-79
2022/04/07 09:16:40;;;;;;;39.70;35.42;;;15.70;56.00;;;;;;6121506;23;20408;-79
2022/04/07 09:19:08;;;;;;;42.45;35.38;;;15.80;55.10;;;;;;6120829;23;20380;-78
2022/04/07 09:21:36;;;;;;;41.17;36.35;;;15.90;55.10;;;;;;6121314;23;20388;-79
2022/04/07 09:24:07;;;;;;;39.80;35.38;;;16.00;54.50;;;;;;6120038;23;20390;-77
2022/04/07 09:26:36;;;;;;;39.08;34.75;;;16.00;54.70;;;;;;6121578;23;20376;-80
2022/04/07 09:29:11;;;;;;;41.00;35.22;;;16.00;54.60;;;;;;6121033;23;20438;-78
2022/04/07 09:31:39;;;;;;;41.97;34.77;;;16.40;54.70;;;;;;6122592;23;20430;-79
2022/04/07 09:34:08;;;;;;;38.70;33.47;;;16.30;54.10;;;;;;6121190;23;20384;-78
2022/04/07 09:36:36;;;;;;;36.47;31.63;;;16.60;53.40;;;;;;6122883;23;20387;-80
2022/04/07 09:39:09;;;;;;;38.47;34.28;;;16.20;52.30;;;;;;6121596;23;20856;-79
2022/04/07 09:41:36;;;;;;;42.53;34.97;;;16.40;53.60;;;;;;6123419;23;20690;-78
2022/04/07 09:44:03;;;;;;;39.55;35.25;;;16.30;52.20;;;;;;6122503;23;20442;-80
2022/04/07 09:46:38;;;;;;;40.53;36.13;;;15.90;52.30;;;;;;6123811;23;20375;-79
2022/04/07 09:49:10;;;;;;;40.47;35.22;;;16.10;53.90;;;;;;6123317;23;20454;-79
2022/04/07 09:51:48;;;;;;;39.80;32.92;;;16.50;53.70;;;;;;6123076;23;20379;-79
2022/04/07 09:54:17;;;;;;;41.20;35.28;;;16.60;52.30;;;;;;6122593;23;20789;-80
2022/04/07 09:56:47;;;;;;;41.70;36.30;;;16.80;51.90;;;;;;6122977;23;20443;-80
2022/04/07 09:59:18;;;;;;;41.28;34.40;;;16.60;50.70;;;;;;6123000;23;20846;-79
2022/04/07 10:01:45;;;;;;;38.97;34.65;;;16.90;52.50;;;;;;6123264;23;20379;-78
2022/04/07 10:04:12;;;;;;;40.90;34.28;;;17.10;51.70;;;;;;6122210;23;20419;-79
2022/04/07 10:06:39;;;;;;;38.10;33.85;;;16.80;51.50;;;;;;6124327;23;20904;-80
2022/04/07 10:09:08;;;;;;;37.20;33.10;;;16.60;51.60;;;;;;6121743;23;20383;-80
2022/04/07 10:11:36;;;;;;;37.30;31.88;;;16.80;51.60;;;;;;6125230;23;20391;-79
2022/04/07 10:14:03;;;;;;;35.72;29.45;;;17.20;50.70;;;;;;6124011;23;20383;-79
2022/04/07 10:16:46;;;;;;;36.28;31.27;;;17.50;49.70;;;;;;6123458;23;20399;-80
2022/04/07 10:19:38;;;;;;;35.30;30.08;;;17.20;48.90;;;;;;6122472;23;20806;-81
2022/04/07 10:22:26;;;;;;;33.97;29.02;;;17.40;50.30;;;;;;6123303;23;20419;-78
2022/04/07 10:24:57;;;;;;;35.70;30.85;;;17.80;48.90;;;;;;6122442;23;20403;-79
2022/04/07 10:27:45;;;;;;;34.85;31.15;;;17.90;49.40;;;;;;6123299;23;20387;-79
2022/04/07 10:30:14;;;;;;;36.63;32.40;;;18.00;50.80;;;;;;6122891;23;20376;-79
2022/04/07 10:32:42;;;;;;;34.33;28.75;;;18.00;48.60;;;;;;6122710;23;20407;-81
2022/04/07 10:35:11;;;;;;;34.30;28.55;;;18.00;48.40;;;;;;6122157;23;20376;-79
2022/04/07 10:37:46;;;;;;;35.10;29.92;;;18.20;48.40;;;;;;6123052;23;20376;-80
2022/04/07 10:40:33;;;;;;;35.28;30.92;;;18.00;48.90;;;;;;6122858;23;20364;-81
2022/04/07 10:43:07;;;;;;;34.50;28.38;;;17.60;48.50;;;;;;6123908;23;20435;-80
2022/04/07 10:45:36;;;;;;;31.45;28.05;;;17.40;49.10;;;;;;6122945;23;20396;-79
2022/04/07 10:48:26;;;;;;;27.30;22.52;;;17.70;49.20;;;;;;6122772;23;20389;-79
2022/04/07 10:51:02;;;;;;;26.95;22.75;;;18.20;46.20;;;;;;6123228;23;20383;-78
2022/04/07 10:53:56;;;;;;;29.67;25.50;;;18.50;46.20;;;;;;6122893;23;20379;-78
2022/04/07 10:56:49;;;;;;;30.75;26.35;;;18.70;44.60;;;;;;6118456;23;20454;-80
2022/04/07 10:59:27;;;;;;;26.67;22.20;;;19.00;46.90;;;;;;6124289;23;20993;-79
2022/04/07 11:02:09;;;;;;;26.80;20.60;;;19.20;44.40;;;;;;6122469;23;20712;-79
2022/04/07 11:04:37;;;;;;;24.02;19.17;;;18.90;44.20;;;;;;6122514;23;20556;-80
2022/04/07 11:07:07;;;;;;;26.23;21.13;;;18.40;41.90;;;;;;6124019;23;20450;-78
2022/04/07 11:09:43;;;;;;;28.08;23.17;;;18.20;43.80;;;;;;6123836;23;20391;-77
2022/04/07 11:12:22;;;;;;;27.10;22.63;;;18.40;46.10;;;;;;6123025;23;20439;-81
2022/04/07 11:15:13;;;;;;;28.02;24.00;;;18.90;45.30;;;;;;6147355;23;20372;-79
2022/04/07 11:17:43;;;;;;;27.25;21.80;;;19.20;44.30;;;;;;6122907;23;20847;-79
2022/04/07 11:20:26;;;;;;;29.00;23.52;;;19.40;43.20;;;;;;6125109;23;20384;-79
2022/04/07 11:23:08;;;;;;;31.00;23.90;;;19.30;42.20;;;;;;6124484;23;20364;-78
2022/04/07 11:25:37;;;;;;;29.70;22.05;;;19.10;42.00;;;;;;6121998;23;20386;-81
2022/04/07 11:28:17;;;;;;;27.00;20.42;;;18.80;44.00;;;;;;6122242;23;20446;-81
2022/04/07 11:30:52;;;;;;;22.77;19.08;;;18.70;42.00;;;;;;6126452;23;20376;-82
2022/04/07 11:33:28;;;;;;;26.50;20.83;;;19.10;43.50;;;;;;6124573;23;20699;-81
2022/04/07 11:36:32;;;;;;;27.07;21.13;;;19.10;42.70;;;;;;6121435;23;20368;-79
2022/04/07 11:38:59;;;;;;;22.73;17.57;;;18.90;42.90;;;;;;6124016;23;21042;-81
2022/04/07 11:41:32;;;;;;;21.85;16.50;;;19.30;42.40;;;;;;6123891;23;20856;-78
2022/04/07 11:44:05;;;;;;;27.73;20.20;;;19.60;41.20;;;;;;6124811;23;20383;-77
2022/04/07 11:46:32;;;;;;;22.75;16.35;;;19.30;40.40;;;;;;6124596;23;20380;-77
2022/04/07 11:49:01;;;;;;;22.63;15.60;;;19.30;41.40;;;;;;6126266;23;20375;-78
2022/04/07 11:51:28;;;;;;;23.10;15.60;;;19.90;42.10;;;;;;6124044;23;20418;-80
2022/04/07 11:53:56;;;;;;;23.05;16.15;;;20.20;41.30;;;;;;6124396;23;20388;-81
2022/04/07 11:56:30;;;;;;;24.08;15.90;;;20.50;40.20;;;;;;6127717;23;20375;-79
2022/04/07 11:58:59;;;;;;;27.00;17.77;;;20.30;38.80;;;;;;6134465;23;20383;-81
2022/04/07 12:01:28;;;;;;;24.77;17.77;;;20.20;39.40;;;;;;6123548;23;20439;-78
2022/04/07 12:04:00;;;;;;;24.88;16.45;;;20.50;40.80;;;;;;6122129;23;20439;-81
2022/04/07 12:06:29;;;;;;;21.67;16.55;;;21.00;40.20;;;;;;6101601;23;20387;-81
2022/04/07 12:08:58;;;;;;;22.83;16.38;;;20.90;38.10;;;;;;6121422;23;20383;-80
2022/04/07 12:11:27;;;;;;;22.25;16.25;;;20.80;37.50;;;;;;6131097;23;20458;-79
2022/04/07 12:13:56;;;;;;;24.38;15.30;;;20.70;40.00;;;;;;6121933;23;20384;-78
2022/04/07 12:16:24;;;;;;;25.05;16.10;;;21.00;38.00;;;;;;6125785;23;20434;-80
2022/04/07 12:18:59;;;;;;;19.48;13.98;;;21.20;39.30;;;;;;6122641;23;20384;-78
2022/04/07 12:21:28;;;;;;;22.03;14.07;;;21.60;36.60;;;;;;6125834;23;20434;-78
2022/04/07 12:24:14;;;;;;;19.83;13.50;;;21.40;36.70;;;;;;6123579;23;20932;-82
2022/04/07 12:26:46;;;;;;;25.48;14.85;;;21.70;36.30;;;;;;6124540;23;20756;-81
2022/04/07 12:29:15;;;;;;;24.38;15.48;;;21.30;36.70;;;;;;6124472;23;20376;-80
2022/04/07 12:31:42;;;;;;;24.70;15.80;;;21.30;37.70;;;;;;6122489;23;20757;-79
2022/04/07 12:34:17;;;;;;;22.20;14.23;;;21.10;38.00;;;;;;6122353;23;20380;-82
2022/04/07 12:36:44;;;;;;;22.80;13.18;;;21.30;38.60;;;;;;6123585;23;20936;-79
2022/04/07 12:39:15;;;;;;;23.08;13.60;;;21.80;39.60;;;;;;6128560;23;20384;-79
2022/04/07 12:41:50;;;;;;;19.55;12.63;;;21.70;36.60;;;;;;6124701;23;20376;-81
2022/04/07 12:44:22;;;;;;;19.48;12.18;;;22.10;36.10;;;;;;6125090;23;20403;-82